Time;durP1;ratioP1;P1;durP2;ratioP2;P2;SDS_P1;SDS_P2;PMS_P1;PMS_P2;Temp;Humidity;BMP_temperature;BMP_pressure;BME280_temperature;BME280_humidity;BME280_pressure;Samples;Min_cycle;Max_cycle;Signal;HPM_P1;HPM_P2
2021/07/05 00:00:44;;;;;;;10.73;9.83;;;22.30;99.90;;;;;;6157787;23;20487;-47
2021/07/05 00:03:11;;;;;;;10.83;9.70;;;22.30;99.90;;;;;;6157884;23;20947;-46
2021/07/05 00:05:37;;;;;;;10.60;9.50;;;22.30;99.90;;;;;;6157840;23;20410;-47
2021/07/05 00:08:05;;;;;;;14.73;10.47;;;22.20;99.90;;;;;;6157922;23;20441;-50
2021/07/05 00:10:31;;;;;;;13.60;10.37;;;22.20;99.90;;;;;;6157610;23;20722;-47
2021/07/05 00:12:58;;;;;;;12.27;9.90;;;22.20;99.90;;;;;;6157197;23;20869;-47
2021/07/05 00:15:27;;;;;;;11.07;9.97;;;22.10;99.90;;;;;;6157960;23;20425;-45
2021/07/05 00:18:00;;;;;;;10.43;9.43;;;22.10;99.90;;;;;;6157543;23;20452;-45
2021/07/05 00:20:28;;;;;;;11.60;10.50;;;22.00;99.90;;;;;;6158091;23;20872;-44
2021/07/05 00:22:55;;;;;;;12.57;11.40;;;22.00;99.90;;;;;;6157273;23;20413;-47
2021/07/05 00:25:23;;;;;;;11.63;10.43;;;22.00;99.90;;;;;;6158689;23;20469;-50
2021/07/05 00:27:50;;;;;;;11.30;9.87;;;21.90;99.90;;;;;;6159387;23;20425;-48
2021/07/05 00:30:18;;;;;;;12.00;10.80;;;22.00;99.90;;;;;;6158785;23;20433;-43
2021/07/05 00:32:46;;;;;;;11.10;10.00;;;21.90;99.90;;;;;;6159190;23;20413;-45
2021/07/05 00:35:15;;;;;;;10.23;8.63;;;21.90;99.90;;;;;;6159469;23;20911;-45
2021/07/05 00:37:42;;;;;;;10.80;9.80;;;21.90;99.90;;;;;;6159445;23;20812;-46
2021/07/05 00:40:11;;;;;;;11.63;10.53;;;21.90;99.90;;;;;;6159146;23;20468;-46
2021/07/05 00:42:38;;;;;;;11.33;10.03;;;21.90;99.90;;;;;;6159136;23;20417;-46
2021/07/05 00:45:07;;;;;;;12.20;10.40;;;21.80;99.90;;;;;;6159196;23;20915;-46
2021/07/05 00:47:33;;;;;;;11.93;10.77;;;21.80;99.90;;;;;;6159074;23;20452;-46
2021/07/05 00:50:00;;;;;;;11.53;10.30;;;21.80;99.90;;;;;;6159255;23;20427;-46
2021/07/05 00:52:29;;;;;;;12.30;11.20;;;21.70;99.90;;;;;;6159630;23;20409;-48
2021/07/05 00:54:56;;;;;;;12.53;10.87;;;21.60;99.90;;;;;;6160036;23;20759;-49
2021/07/05 00:57:25;;;;;;;12.83;11.53;;;21.60;99.90;;;;;;6157839;23;20520;-45
2021/07/05 00:59:53;;;;;;;12.27;10.90;;;21.60;99.90;;;;;;6158576;23;20841;-46
2021/07/05 01:02:21;;;;;;;12.20;10.70;;;21.50;99.90;;;;;;6158559;23;20390;-51
2021/07/05 01:04:49;;;;;;;11.80;10.80;;;21.50;99.90;;;;;;6157895;23;20880;-46
2021/07/05 01:07:15;;;;;;;9.83;9.00;;;21.50;99.90;;;;;;6158264;23;20386;-45
2021/07/05 01:09:44;;;;;;;13.03;11.77;;;21.40;99.90;;;;;;6159058;23;20429;-51
2021/07/05 01:12:11;;;;;;;12.57;11.23;;;21.40;99.90;;;;;;6158186;23;20394;-47
2021/07/05 01:14:39;;;;;;;11.37;10.30;;;21.40;99.90;;;;;;6158423;23;20426;-48
2021/07/05 01:17:10;;;;;;;12.10;11.00;;;21.40;99.90;;;;;;6158463;23;20480;-46
2021/07/05 01:19:37;;;;;;;12.53;11.43;;;21.30;99.90;;;;;;6158235;23;20453;-44
2021/07/05 01:22:06;;;;;;;12.40;11.20;;;21.30;99.90;;;;;;6166239;23;20421;-48
2021/07/05 01:24:33;;;;;;;12.33;10.73;;;21.30;99.90;;;;;;6158302;23;20410;-45
2021/07/05 01:26:59;;;;;;;12.47;11.20;;;21.30;99.90;;;;;;6158700;23;20740;-46
2021/07/05 01:29:26;;;;;;;12.67;11.57;;;21.30;99.90;;;;;;6157764;23;20920;-48
2021/07/05 01:31:53;;;;;;;12.40;11.10;;;21.20;99.90;;;;;;6158946;23;20436;-50
2021/07/05 01:34:20;;;;;;;12.37;11.20;;;21.20;99.90;;;;;;6159937;23;20468;-47
2021/07/05 01:36:46;;;;;;;14.93;11.87;;;21.20;99.90;;;;;;6161191;23;20504;-47
2021/07/05 01:39:14;;;;;;;25.17;13.03;;;21.20;99.90;;;;;;6158446;23;20473;-49
2021/07/05 01:41:41;;;;;;;13.13;11.90;;;21.20;99.90;;;;;;6159609;23;20430;-46
2021/07/05 01:44:08;;;;;;;13.63;12.10;;;21.10;99.90;;;;;;6159369;23;20434;-44
2021/07/05 01:46:35;;;;;;;14.60;12.50;;;21.10;99.90;;;;;;6162351;23;20406;-48
2021/07/05 01:49:02;;;;;;;12.70;11.50;;;21.10;99.90;;;;;;6158718;23;20410;-44
2021/07/05 01:51:28;;;;;;;12.83;11.40;;;21.10;99.90;;;;;;6159604;23;20440;-46
2021/07/05 01:53:55;;;;;;;13.67;12.27;;;21.10;99.90;;;;;;6160120;23;20476;-43
2021/07/05 01:56:24;;;;;;;13.23;11.83;;;21.00;99.90;;;;;;6159663;23;20410;-45
2021/07/05 01:58:50;;;;;;;13.13;11.77;;;21.00;99.90;;;;;;6160383;23;20464;-46
2021/07/05 02:01:18;;;;;;;13.70;12.40;;;21.00;99.90;;;;;;6158223;23;20410;-49
2021/07/05 02:03:44;;;;;;;11.50;10.50;;;20.90;99.90;;;;;;6160573;23;20413;-45
2021/07/05 02:06:11;;;;;;;13.53;12.27;;;20.90;99.90;;;;;;6159190;23;20405;-48
2021/07/05 02:08:39;;;;;;;12.10;11.00;;;20.90;99.90;;;;;;6160117;23;20936;-43
2021/07/05 02:11:06;;;;;;;14.23;12.83;;;20.80;99.90;;;;;;6160710;23;20428;-46
2021/07/05 02:13:37;;;;;;;12.73;11.63;;;20.80;99.90;;;;;;6160555;23;20833;-50
2021/07/05 02:16:04;;;;;;;13.50;12.10;;;20.80;99.90;;;;;;6160532;23;20739;-48
2021/07/05 02:18:33;;;;;;;18.43;12.77;;;20.80;99.90;;;;;;6158918;23;20441;-47
2021/07/05 02:21:02;;;;;;;13.70;12.50;;;20.70;99.90;;;;;;6159061;23;20464;-43
2021/07/05 02:23:30;;;;;;;13.23;11.83;;;20.70;99.90;;;;;;6159461;23;20410;-45
2021/07/05 02:25:57;;;;;;;15.03;13.03;;;20.70;99.90;;;;;;6160411;23;20413;-50
2021/07/05 02:28:27;;;;;;;14.37;12.97;;;20.70;99.90;;;;;;6160624;23;20398;-50
2021/07/05 02:30:56;;;;;;;13.47;12.20;;;20.60;99.90;;;;;;6158388;23;20433;-46
2021/07/05 02:33:25;;;;;;;13.30;12.10;;;20.60;99.90;;;;;;6158244;23;20417;-49
2021/07/05 02:35:52;;;;;;;14.63;12.93;;;20.50;99.90;;;;;;6157572;23;20418;-42
2021/07/05 02:38:21;;;;;;;13.93;12.63;;;20.50;99.90;;;;;;6158634;23;20437;-42
2021/07/05 02:40:49;;;;;;;13.00;11.70;;;20.50;99.90;;;;;;6158865;23;20437;-45
2021/07/05 02:43:18;;;;;;;17.80;12.30;;;20.50;99.90;;;;;;6160165;23;20770;-50
2021/07/05 02:45:46;;;;;;;13.80;12.50;;;20.50;99.90;;;;;;6248957;22;20469;-47
2021/07/05 02:48:18;;;;;;;14.20;12.90;;;20.50;99.90;;;;;;6279287;22;20739;-47
2021/07/05 02:50:48;;;;;;;13.60;12.30;;;20.40;99.90;;;;;;6279456;22;20394;-48
2021/07/05 02:53:15;;;;;;;15.17;13.63;;;20.40;99.90;;;;;;6279432;22;20378;-44
2021/07/05 02:55:42;;;;;;;13.13;11.83;;;20.40;99.90;;;;;;6279298;22;20409;-47
2021/07/05 02:58:10;;;;;;;14.87;13.33;;;20.40;99.90;;;;;;6278925;22;20492;-43
2021/07/05 03:00:38;;;;;;;14.93;13.60;;;20.30;99.90;;;;;;6279236;22;20414;-48
2021/07/05 03:03:05;;;;;;;14.23;12.77;;;20.30;99.90;;;;;;6279241;22;20399;-43
2021/07/05 03:05:33;;;;;;;12.73;11.53;;;20.30;99.90;;;;;;6279133;22;20472;-45
2021/07/05 03:08:00;;;;;;;15.20;12.67;;;20.20;99.90;;;;;;6278736;22;20410;-49
2021/07/05 03:10:28;;;;;;;13.90;12.33;;;20.20;99.90;;;;;;6278826;22;20872;-48
2021/07/05 03:12:55;;;;;;;15.50;12.80;;;20.20;99.90;;;;;;6278699;22;20475;-46
2021/07/05 03:15:22;;;;;;;14.47;12.97;;;20.20;99.90;;;;;;6279273;22;20402;-51
2021/07/05 03:17:49;;;;;;;13.93;12.63;;;20.20;99.90;;;;;;6279381;22;20521;-51
2021/07/05 03:20:22;;;;;;;13.63;12.33;;;20.20;99.90;;;;;;6277474;22;20864;-49
2021/07/05 03:22:51;;;;;;;13.57;12.17;;;20.20;99.90;;;;;;6277926;22;20387;-48
2021/07/05 03:25:20;;;;;;;15.33;13.83;;;20.20;99.90;;;;;;6277940;22;20770;-46
2021/07/05 03:27:47;;;;;;;14.90;13.43;;;20.20;99.90;;;;;;6277640;22;20417;-48
2021/07/05 03:30:19;;;;;;;17.00;11.80;;;20.20;99.90;;;;;;6277859;22;20398;-44
2021/07/05 03:32:46;;;;;;;14.60;13.00;;;20.20;99.90;;;;;;6278122;22;20425;-43
2021/07/05 03:35:14;;;;;;;15.23;13.63;;;20.20;99.90;;;;;;6279476;22;20702;-44
2021/07/05 03:37:41;;;;;;;13.37;11.97;;;20.20;99.90;;;;;;6279151;22;20438;-45
2021/07/05 03:40:13;;;;;;;12.80;11.50;;;20.20;99.90;;;;;;6279253;22;20406;-45
2021/07/05 03:42:40;;;;;;;14.10;12.73;;;20.30;99.90;;;;;;6279325;22;20464;-44
2021/07/05 03:45:09;;;;;;;13.43;12.03;;;20.30;99.90;;;;;;6278862;22;20429;-43
2021/07/05 03:47:36;;;;;;;14.03;12.67;;;20.30;99.90;;;;;;6279341;22;20737;-46
2021/07/05 03:50:04;;;;;;;13.00;11.63;;;20.30;99.90;;;;;;6279275;22;20761;-45
2021/07/05 03:52:30;;;;;;;12.20;11.00;;;20.40;99.90;;;;;;6279432;22;20398;-44
2021/07/05 03:54:57;;;;;;;15.83;11.93;;;20.40;99.90;;;;;;6279571;22;20398;-44
2021/07/05 03:57:26;;;;;;;13.27;12.07;;;20.40;99.90;;;;;;6278829;22;20437;-43
2021/07/05 03:59:54;;;;;;;13.77;12.37;;;20.40;99.90;;;;;;6281294;22;20418;-44
2021/07/05 04:02:21;;;;;;;13.93;11.93;;;20.40;99.90;;;;;;6280957;22;20829;-44
2021/07/05 04:04:48;;;;;;;14.87;13.37;;;20.40;99.90;;;;;;6281687;22;20410;-44
2021/07/05 04:07:15;;;;;;;16.10;14.50;;;20.40;99.90;;;;;;6281749;22;20483;-45
2021/07/05 04:09:43;;;;;;;13.10;11.83;;;20.40;99.90;;;;;;6281341;22;20445;-44
2021/07/05 04:12:11;;;;;;;13.13;11.80;;;20.40;99.90;;;;;;6281278;22;20785;-44
2021/07/05 04:14:41;;;;;;;13.67;12.37;;;20.40;99.90;;;;;;6281421;22;20667;-45
2021/07/05 04:17:08;;;;;;;15.83;14.30;;;20.40;99.90;;;;;;6281167;22;20471;-46
2021/07/05 04:19:34;;;;;;;14.97;13.37;;;20.40;99.90;;;;;;6281730;22;20520;-48
2021/07/05 04:22:01;;;;;;;13.93;12.43;;;20.40;99.90;;;;;;6280329;22;20459;-47
2021/07/05 04:24:28;;;;;;;14.30;12.73;;;20.40;99.90;;;;;;6281044;22;20475;-46
2021/07/05 04:26:54;;;;;;;14.47;13.00;;;20.50;99.90;;;;;;6280515;22;20472;-44
2021/07/05 04:29:21;;;;;;;14.37;13.00;;;20.50;99.90;;;;;;6280714;22;20406;-48
2021/07/05 04:31:49;;;;;;;16.13;13.47;;;20.40;99.90;;;;;;6280719;22;20732;-48
2021/07/05 04:34:16;;;;;;;15.13;13.53;;;20.40;99.90;;;;;;6281118;22;20479;-47
2021/07/05 04:36:43;;;;;;;14.33;13.00;;;20.30;99.90;;;;;;6280598;22;20405;-48
2021/07/05 04:39:09;;;;;;;15.33;13.83;;;20.40;99.90;;;;;;6280739;22;20495;-43
2021/07/05 04:41:36;;;;;;;14.70;13.20;;;20.40;99.90;;;;;;6280902;22;20418;-48
2021/07/05 04:44:04;;;;;;;15.67;12.80;;;20.30;99.90;;;;;;6280944;22;20467;-46
2021/07/05 04:46:31;;;;;;;15.87;14.20;;;20.30;99.90;;;;;;6280156;22;20434;-44
2021/07/05 04:48:59;;;;;;;15.77;13.17;;;20.30;99.90;;;;;;6280372;22;20759;-48
2021/07/05 04:51:26;;;;;;;14.07;12.60;;;20.40;99.90;;;;;;6280642;22;20467;-48
2021/07/05 04:53:53;;;;;;;13.87;12.47;;;20.40;99.90;;;;;;6280551;22;20432;-47
2021/07/05 04:56:20;;;;;;;16.50;12.87;;;20.40;99.90;;;;;;6280901;22;20418;-47
2021/07/05 04:58:46;;;;;;;14.57;13.10;;;20.40;99.90;;;;;;6280782;22;20440;-47
2021/07/05 05:01:13;;;;;;;14.40;13.00;;;20.40;99.90;;;;;;6280857;22;20402;-48
2021/07/05 05:03:40;;;;;;;15.27;13.67;;;20.40;99.90;;;;;;6280930;22;20406;-46
2021/07/05 05:06:08;;;;;;;14.97;13.20;;;20.40;99.90;;;;;;6280729;22;20548;-50
2021/07/05 05:08:35;;;;;;;14.80;13.40;;;20.40;99.90;;;;;;6278789;22;20395;-49
2021/07/05 05:11:02;;;;;;;14.30;12.47;;;20.50;99.90;;;;;;6278707;22;20487;-47
2021/07/05 05:13:29;;;;;;;14.70;13.20;;;20.50;99.90;;;;;;6279060;22;20410;-49
2021/07/05 05:15:56;;;;;;;14.17;12.83;;;20.60;99.90;;;;;;6279219;22;20433;-49
2021/07/05 05:18:23;;;;;;;16.93;15.07;;;20.70;99.90;;;;;;6279005;22;20511;-45
2021/07/05 05:20:50;;;;;;;14.70;13.20;;;20.80;99.90;;;;;;6279086;22;20764;-45
2021/07/05 05:23:18;;;;;;;14.57;13.17;;;20.90;99.90;;;;;;6279012;22;20414;-49
2021/07/05 05:25:45;;;;;;;14.03;12.63;;;21.00;99.90;;;;;;6279108;22;20414;-47
2021/07/05 05:28:11;;;;;;;14.93;13.33;;;21.10;99.90;;;;;;6278576;22;20860;-48
2021/07/05 05:30:38;;;;;;;17.60;14.33;;;21.20;99.90;;;;;;6279046;22;20938;-49
2021/07/05 05:33:05;;;;;;;13.67;12.30;;;21.30;99.90;;;;;;6278987;22;20449;-43
2021/07/05 05:35:32;;;;;;;14.80;13.40;;;21.40;99.90;;;;;;6279517;22;20705;-48
2021/07/05 05:37:59;;;;;;;13.50;12.10;;;21.50;99.90;;;;;;6280330;22;20499;-45
2021/07/05 05:40:28;;;;;;;13.43;12.13;;;21.60;99.90;;;;;;6280247;22;20712;-48
2021/07/05 05:42:55;;;;;;;14.50;12.30;;;21.60;99.90;;;;;;6280602;22;20448;-44
2021/07/05 05:45:22;;;;;;;14.13;11.63;;;21.70;99.90;;;;;;6279962;22;20434;-45
2021/07/05 05:47:49;;;;;;;14.10;12.73;;;21.70;99.90;;;;;;6280302;22;20405;-50
2021/07/05 05:50:16;;;;;;;13.70;12.40;;;21.80;99.90;;;;;;6280062;22;20433;-48
2021/07/05 05:52:43;;;;;;;13.70;12.27;;;21.80;99.90;;;;;;6280036;22;20402;-45
2021/07/05 05:55:14;;;;;;;14.00;12.50;;;21.80;99.90;;;;;;6280549;22;20394;-46
2021/07/05 05:57:42;;;;;;;14.13;12.27;;;21.90;99.90;;;;;;6280153;22;20398;-47
2021/07/05 06:00:15;;;;;;;16.03;12.70;;;22.00;99.90;;;;;;6280201;22;20485;-46
2021/07/05 06:02:42;;;;;;;12.33;11.10;;;22.20;99.90;;;;;;6280525;22;20443;-51
2021/07/05 06:05:10;;;;;;;14.47;12.23;;;22.30;99.90;;;;;;6279931;22;20748;-46
2021/07/05 06:07:37;;;;;;;12.23;10.93;;;22.40;99.90;;;;;;6279887;22;20425;-43
2021/07/05 06:10:05;;;;;;;12.97;11.47;;;22.40;99.90;;;;;;6279475;22;20414;-44
2021/07/05 06:12:32;;;;;;;11.37;10.27;;;22.40;99.90;;;;;;6279821;22;20783;-48
2021/07/05 06:15:00;;;;;;;11.47;10.33;;;22.40;99.90;;;;;;6279813;22;20410;-47
2021/07/05 06:17:27;;;;;;;11.67;10.50;;;22.50;99.90;;;;;;6279984;22;20394;-46
2021/07/05 06:19:53;;;;;;;11.13;9.90;;;22.50;99.90;;;;;;6280082;22;20437;-45
2021/07/05 06:22:27;;;;;;;11.03;9.60;;;22.60;99.90;;;;;;6279143;22;20452;-44
2021/07/05 06:24:53;;;;;;;10.93;9.93;;;22.70;99.90;;;;;;6279845;22;20485;-44
2021/07/05 06:27:20;;;;;;;10.87;9.87;;;22.80;99.90;;;;;;6279476;22;20398;-48
2021/07/05 06:29:47;;;;;;;11.63;10.07;;;22.90;99.90;;;;;;6279858;22;20773;-49
2021/07/05 06:32:16;;;;;;;10.13;9.13;;;23.10;99.90;;;;;;6279351;22;20666;-48
2021/07/05 06:34:42;;;;;;;10.00;9.00;;;23.20;99.90;;;;;;6279648;22;20480;-43
2021/07/05 06:37:09;;;;;;;10.10;9.20;;;23.30;99.90;;;;;;6279547;22;20406;-45
2021/07/05 06:39:36;;;;;;;9.97;8.97;;;23.30;99.90;;;;;;6279021;22;20434;-44
2021/07/05 06:42:03;;;;;;;11.90;9.10;;;23.40;99.90;;;;;;6279626;22;20414;-46
2021/07/05 06:44:30;;;;;;;10.40;9.23;;;23.40;99.90;;;;;;6279524;22;20464;-43
2021/07/05 06:46:57;;;;;;;11.53;8.93;;;23.40;99.90;;;;;;6279287;22;20962;-47
2021/07/05 06:49:25;;;;;;;8.67;7.80;;;23.40;99.90;;;;;;6279143;22;20946;-44
2021/07/05 06:51:51;;;;;;;10.03;8.60;;;23.30;99.90;;;;;;6279802;22;20402;-44
2021/07/05 06:54:18;;;;;;;9.63;8.73;;;23.30;99.90;;;;;;6279530;22;20413;-46
2021/07/05 06:56:44;;;;;;;11.80;8.00;;;23.10;99.90;;;;;;6286044;22;20443;-45
2021/07/05 06:59:11;;;;;;;9.83;8.40;;;23.10;99.90;;;;;;6285039;22;20708;-44
2021/07/05 07:01:39;;;;;;;9.33;8.37;;;23.00;99.90;;;;;;6279527;22;20401;-45
2021/07/05 07:04:06;;;;;;;10.43;9.17;;;23.00;99.90;;;;;;6279496;22;20460;-43
2021/07/05 07:06:34;;;;;;;9.23;8.43;;;22.80;99.90;;;;;;6278839;22;20438;-42
2021/07/05 07:09:00;;;;;;;12.53;8.23;;;22.60;99.90;;;;;;6280930;22;20452;-45
2021/07/05 07:11:27;;;;;;;8.87;7.93;;;22.40;99.90;;;;;;6280664;22;20922;-44
2021/07/05 07:13:54;;;;;;;8.60;7.70;;;22.40;99.90;;;;;;6279647;22;20682;-43
2021/07/05 07:16:22;;;;;;;7.93;7.17;;;22.30;99.90;;;;;;6279602;22;20472;-45
2021/07/05 07:19:07;;;;;;;10.67;7.20;;;22.20;99.90;;;;;;6278570;22;20486;-43
2021/07/05 07:21:36;;;;;;;8.67;7.43;;;22.10;99.90;;;;;;6279262;22;20489;-46
2021/07/05 07:24:03;;;;;;;8.70;7.80;;;22.00;99.90;;;;;;6279335;22;20414;-46
2021/07/05 07:26:29;;;;;;;8.17;7.30;;;22.00;99.90;;;;;;6279268;22;20463;-47
2021/07/05 07:28:56;;;;;;;8.37;7.40;;;21.80;99.90;;;;;;6279191;22;20406;-48
2021/07/05 07:31:24;;;;;;;8.57;7.67;;;21.80;99.90;;;;;;6278822;22;20683;-48
2021/07/05 07:33:50;;;;;;;7.40;6.70;;;21.80;99.90;;;;;;6279546;22;20406;-46
2021/07/05 07:36:17;;;;;;;6.73;6.07;;;21.80;99.90;;;;;;6280077;22;20406;-47
2021/07/05 07:38:47;;;;;;;7.87;7.17;;;21.70;99.90;;;;;;6278889;22;20442;-49
2021/07/05 07:41:19;;;;;;;7.53;6.67;;;21.70;99.90;;;;;;6278960;22;20426;-47
2021/07/05 07:43:46;;;;;;;7.43;6.40;;;21.60;99.90;;;;;;6279452;22;20444;-47
2021/07/05 07:46:13;;;;;;;8.47;6.80;;;21.60;99.90;;;;;;6278857;22;20978;-51
2021/07/05 07:48:39;;;;;;;7.20;6.20;;;21.60;99.90;;;;;;6279085;22;20456;-47
2021/07/05 07:51:06;;;;;;;8.13;6.90;;;21.50;99.90;;;;;;6278527;22;20414;-48
2021/07/05 07:53:33;;;;;;;8.40;6.13;;;21.50;99.90;;;;;;6278226;22;20426;-47
2021/07/05 07:56:01;;;;;;;7.00;5.23;;;21.40;99.90;;;;;;6278981;22;20403;-48
2021/07/05 07:58:27;;;;;;;8.53;6.77;;;21.30;99.90;;;;;;6279391;22;20468;-47
2021/07/05 08:00:54;;;;;;;8.03;5.60;;;21.10;99.90;;;;;;6279315;22;20460;-46
2021/07/05 08:03:21;;;;;;;14.17;7.33;;;20.90;99.90;;;;;;6279470;22;20402;-52
2021/07/05 08:05:47;;;;;;;9.50;7.70;;;20.80;99.90;;;;;;6279049;22;20406;-47
2021/07/05 08:08:15;;;;;;;9.13;8.00;;;20.70;99.90;;;;;;6279082;22;20860;-47
2021/07/05 08:10:43;;;;;;;8.70;6.00;;;20.70;99.90;;;;;;6279294;22;20919;-47
2021/07/05 08:13:11;;;;;;;8.17;6.20;;;20.60;99.90;;;;;;6279481;22;20983;-48
2021/07/05 08:15:38;;;;;;;7.07;5.83;;;20.50;99.90;;;;;;6279794;22;20402;-47
2021/07/05 08:18:05;;;;;;;6.73;4.97;;;20.40;99.90;;;;;;6279045;22;20414;-46
2021/07/05 08:20:32;;;;;;;6.10;5.23;;;20.30;99.90;;;;;;6278899;22;20962;-48
2021/07/05 08:22:58;;;;;;;6.03;5.10;;;20.10;99.90;;;;;;6277802;22;20747;-46
2021/07/05 08:25:27;;;;;;;5.70;5.20;;;20.00;99.90;;;;;;6277747;22;20468;-45
2021/07/05 08:27:58;;;;;;;6.43;5.73;;;19.90;99.90;;;;;;6277330;22;20452;-46
2021/07/05 08:30:28;;;;;;;5.20;4.70;;;19.90;99.90;;;;;;6278814;22;20386;-49
2021/07/05 08:32:55;;;;;;;11.17;6.17;;;19.80;99.90;;;;;;6279755;22;20405;-47
2021/07/05 08:35:23;;;;;;;7.03;6.33;;;19.80;99.90;;;;;;6279404;22;20423;-47
2021/07/05 08:37:52;;;;;;;10.20;6.00;;;19.80;99.90;;;;;;6279455;22;20475;-46
2021/07/05 08:40:20;;;;;;;9.80;6.37;;;19.80;99.90;;;;;;6279607;22;20771;-49
2021/07/05 08:42:48;;;;;;;9.23;6.87;;;19.80;99.90;;;;;;6278920;22;20420;-50
2021/07/05 08:45:16;;;;;;;6.60;5.93;;;19.90;99.90;;;;;;6277768;22;20440;-45
2021/07/05 08:47:47;;;;;;;10.50;5.90;;;19.90;99.90;;;;;;6279459;22;20386;-52
2021/07/05 08:50:15;;;;;;;6.70;5.77;;;19.90;99.90;;;;;;6278926;22;20820;-48
2021/07/05 08:52:44;;;;;;;7.50;6.80;;;19.90;99.90;;;;;;6279306;22;20410;-46
2021/07/05 08:55:12;;;;;;;7.63;6.43;;;20.00;99.90;;;;;;6279356;22;20464;-45
2021/07/05 08:57:41;;;;;;;6.40;5.80;;;20.00;99.90;;;;;;6279251;22;20414;-45
2021/07/05 09:00:11;;;;;;;7.77;6.43;;;20.00;99.90;;;;;;6278040;22;20495;-48
2021/07/05 09:02:38;;;;;;;8.30;6.93;;;20.10;99.90;;;;;;6279208;22;20409;-51
2021/07/05 09:05:08;;;;;;;10.90;6.83;;;20.10;99.90;;;;;;6278835;22;20425;-46
2021/07/05 09:07:55;;;;;;;8.87;8.07;;;20.20;99.90;;;;;;6279939;22;20395;-51
2021/07/05 09:10:22;;;;;;;10.87;8.10;;;20.20;99.90;;;;;;6280709;22;20393;-47
2021/07/05 09:13:11;;;;;;;12.20;8.37;;;20.30;99.90;;;;;;6280066;22;20401;-49
2021/07/05 09:18:35;;;;;;;9.07;8.17;;;20.50;99.90;;;;;;6166938;22;20764;-45
2021/07/05 09:21:18;;;;;;;9.30;7.67;;;20.60;99.90;;;;;;6252626;23;20387;-44
2021/07/05 09:23:48;;;;;;;10.40;9.30;;;20.60;99.90;;;;;;6248138;23;20387;-46
2021/07/05 09:26:23;;;;;;;9.77;8.77;;;20.80;99.90;;;;;;6248432;23;20877;-50
2021/07/05 09:28:51;;;;;;;8.83;7.27;;;20.80;99.90;;;;;;6248510;23;20457;-52
2021/07/05 09:31:30;;;;;;;11.37;9.17;;;20.90;99.90;;;;;;6248242;23;20414;-44
2021/07/05 09:33:56;;;;;;;10.20;9.10;;;21.00;99.90;;;;;;6248318;23;20399;-50
2021/07/05 09:36:25;;;;;;;10.90;9.50;;;20.90;99.90;;;;;;6202940;22;20449;-47
2021/07/05 09:38:52;;;;;;;10.07;8.87;;;20.90;99.90;;;;;;6279040;22;20868;-47
2021/07/05 09:41:22;;;;;;;11.70;9.77;;;20.90;99.90;;;;;;6280896;22;20777;-45
2021/07/05 09:43:56;;;;;;;12.53;9.37;;;20.90;99.90;;;;;;6280210;22;20401;-48
2021/07/05 09:46:37;;;;;;;13.03;9.43;;;20.90;99.90;;;;;;6293122;22;20390;-47
2021/07/05 09:49:14;;;;;;;13.00;10.40;;;20.80;99.90;;;;;;6304921;22;20405;-47
2021/07/05 09:51:43;;;;;;;12.50;10.37;;;20.80;99.90;;;;;;6304844;22;20453;-52
2021/07/05 09:54:10;;;;;;;11.00;8.93;;;20.90;99.90;;;;;;6305303;22;20398;-45
2021/07/05 09:56:37;;;;;;;11.00;9.80;;;20.90;99.90;;;;;;6304850;22;20501;-49
2021/07/05 09:59:16;;;;;;;11.53;8.90;;;20.90;99.90;;;;;;6304157;22;20402;-48
2021/07/05 10:01:44;;;;;;;11.30;10.10;;;20.90;99.90;;;;;;6304022;22;20426;-47
2021/07/05 10:04:16;;;;;;;12.70;11.40;;;20.80;99.90;;;;;;6304028;22;20864;-49
2021/07/05 10:06:46;;;;;;;10.43;9.30;;;20.80;99.90;;;;;;6304134;22;20416;-45
2021/07/05 10:09:14;;;;;;;10.00;8.47;;;20.80;99.90;;;;;;6304408;22;20398;-51
2021/07/05 10:11:41;;;;;;;10.47;9.20;;;20.90;99.90;;;;;;6303867;22;20398;-45
2021/07/05 10:14:17;;;;;;;11.37;7.70;;;21.00;99.90;;;;;;6304097;22;20425;-47
2021/07/05 10:16:44;;;;;;;11.03;9.53;;;21.10;99.90;;;;;;6304744;22;20386;-49
2021/07/05 10:19:14;;;;;;;9.70;8.20;;;21.20;99.90;;;;;;6303337;22;20432;-47
2021/07/05 10:21:41;;;;;;;10.47;8.73;;;21.30;99.90;;;;;;6304077;22;20396;-49
2021/07/05 10:24:10;;;;;;;11.93;7.27;;;21.40;99.90;;;;;;6303888;22;20402;-51
2021/07/05 10:26:38;;;;;;;8.67;7.10;;;21.50;99.90;;;;;;6304260;22;20436;-45
2021/07/05 10:29:06;;;;;;;8.47;7.43;;;21.70;99.90;;;;;;6283951;22;20402;-49
2021/07/05 10:31:34;;;;;;;10.70;7.77;;;21.70;99.90;;;;;;6277621;22;20413;-49
2021/07/05 10:34:02;;;;;;;10.83;7.20;;;21.70;99.90;;;;;;6278258;22;20426;-44
2021/07/05 10:36:32;;;;;;;8.47;7.40;;;21.80;99.90;;;;;;6277370;22;20491;-46
2021/07/05 10:39:01;;;;;;;9.63;8.13;;;21.80;99.90;;;;;;6277937;22;20475;-44
2021/07/05 10:41:36;;;;;;;8.80;7.03;;;21.90;99.90;;;;;;6278000;22;20414;-41
2021/07/05 10:44:05;;;;;;;11.47;7.37;;;22.00;99.90;;;;;;6278021;22;20451;-41
2021/07/05 10:46:41;;;;;;;10.00;7.90;;;22.10;99.90;;;;;;6277365;22;20731;-41
2021/07/05 10:49:10;;;;;;;8.87;6.93;;;22.10;99.90;;;;;;6277828;22;20729;-41
2021/07/05 10:51:44;;;;;;;14.10;7.40;;;22.10;99.90;;;;;;6277553;22;20409;-47
2021/07/05 10:54:12;;;;;;;7.47;6.80;;;22.20;99.90;;;;;;6277905;22;20421;-47
2021/07/05 10:56:43;;;;;;;9.20;8.33;;;22.30;99.90;;;;;;6277838;22;20476;-44
2021/07/05 10:59:36;;;;;;;9.10;7.57;;;22.30;99.90;;;;;;6277526;22;20798;-44
2021/07/05 11:02:36;;;;;;;8.50;7.70;;;22.40;99.90;;;;;;6277886;22;20429;-43
2021/07/05 11:05:05;;;;;;;7.83;7.03;;;22.30;99.90;;;;;;6277792;22;20404;-45
2021/07/05 11:07:45;;;;;;;9.87;8.63;;;22.30;99.90;;;;;;6276972;22;20406;-46
2021/07/05 11:10:25;;;;;;;11.87;7.00;;;22.30;99.90;;;;;;6277275;22;20733;-41
2021/07/05 11:13:01;;;;;;;8.70;7.80;;;22.30;99.90;;;;;;6277672;22;20390;-43
2021/07/05 11:15:56;;;;;;;12.23;8.70;;;22.30;99.90;;;;;;6279992;22;20386;-41
2021/07/05 11:19:06;;;;;;;8.83;7.93;;;22.20;99.90;;;;;;6194477;22;20916;-41
2021/07/05 11:22:00;;;;;;;7.20;6.47;;;22.20;99.90;;;;;;6282261;22;20422;-43
2021/07/05 11:24:45;;;;;;;7.73;6.67;;;22.20;99.90;;;;;;6278942;22;20402;-43
2021/07/05 11:27:40;;;;;;;6.13;5.60;;;22.10;99.90;;;;;;6280022;22;20401;-47
2021/07/05 11:30:37;;;;;;;6.13;5.50;;;22.00;99.90;;;;;;6279710;22;20383;-44
2021/07/05 11:33:20;;;;;;;6.20;5.60;;;21.90;99.90;;;;;;6280122;22;20398;-45
2021/07/05 11:35:50;;;;;;;5.50;4.90;;;21.90;99.90;;;;;;6290876;22;20398;-48
2021/07/05 11:38:28;;;;;;;6.30;5.70;;;22.00;99.90;;;;;;6280206;22;20653;-48
2021/07/05 11:40:57;;;;;;;6.10;5.50;;;22.20;99.90;;;;;;6286363;22;20426;-46
2021/07/05 11:43:47;;;;;;;19.27;12.70;;;22.30;99.90;;;;;;6290178;22;20402;-43
2021/07/05 11:46:39;;;;;;;11.30;9.10;;;22.50;99.90;;;;;;6281151;22;20417;-42
2021/07/05 11:49:07;;;;;;;5.90;5.30;;;22.60;99.90;;;;;;6288900;22;20428;-46
2021/07/05 11:51:36;;;;;;;7.93;5.93;;;22.70;99.90;;;;;;6288178;22;20424;-44
2021/07/05 11:54:07;;;;;;;7.70;6.87;;;22.70;99.90;;;;;;6301256;22;20393;-49
2021/07/05 11:56:40;;;;;;;8.07;6.10;;;22.80;99.90;;;;;;6304635;22;20402;-50
2021/07/05 11:59:09;;;;;;;7.00;6.30;;;22.90;99.90;;;;;;6304553;22;20413;-51
2021/07/05 12:01:42;;;;;;;7.00;6.40;;;22.90;99.90;;;;;;6305134;22;20463;-50
2021/07/05 12:04:10;;;;;;;5.93;5.33;;;23.20;99.90;;;;;;6304397;22;20401;-49
2021/07/05 12:06:37;;;;;;;6.57;5.93;;;23.40;99.90;;;;;;6303819;22;20386;-50
2021/07/05 12:09:07;;;;;;;9.53;8.50;;;23.40;99.90;;;;;;6304085;22;20378;-52
2021/07/05 12:11:37;;;;;;;7.70;6.90;;;23.50;99.90;;;;;;6304426;22;20402;-51
2021/07/05 12:14:10;;;;;;;6.93;6.23;;;23.60;99.90;;;;;;6303602;22;20433;-43
2021/07/05 12:16:42;;;;;;;6.63;6.03;;;23.70;99.90;;;;;;6299694;22;20429;-43
2021/07/05 12:19:12;;;;;;;6.07;5.53;;;23.60;99.90;;;;;;6301820;22;20391;-49
2021/07/05 12:21:42;;;;;;;6.83;5.50;;;23.40;99.90;;;;;;6305067;22;20414;-49
2021/07/05 12:24:22;;;;;;;6.73;6.00;;;23.40;99.90;;;;;;6306234;22;20390;-49
2021/07/05 12:26:52;;;;;;;7.13;6.43;;;23.40;99.90;;;;;;6306306;22;20374;-49
2021/07/05 12:29:22;;;;;;;6.03;5.40;;;23.50;99.90;;;;;;6292197;22;20394;-40
2021/07/05 12:32:07;;;;;;;6.70;5.90;;;23.80;99.90;;;;;;6290645;22;20402;-50
2021/07/05 12:35:01;;;;;;;5.67;5.00;;;24.20;99.90;;;;;;6304604;22;20409;-50
2021/07/05 12:37:48;;;;;;;4.93;4.53;;;24.40;99.90;;;;;;6305627;22;20420;-50
2021/07/05 12:40:21;;;;;;;5.37;4.87;;;24.60;99.90;;;;;;6306814;22;20422;-49
2021/07/05 12:42:50;;;;;;;5.23;4.83;;;24.70;99.90;;;;;;6306530;22;20384;-51
2021/07/05 12:45:23;;;;;;;6.80;5.20;;;24.70;99.90;;;;;;6306109;22;20442;-52
2021/07/05 12:48:02;;;;;;;5.13;4.63;;;24.80;99.90;;;;;;6306207;22;20394;-52
2021/07/05 12:50:32;;;;;;;8.30;5.43;;;24.90;99.90;;;;;;6306088;22;20398;-51